Les Cayes, Haiti
Current Conditions -  °F | °C
As of 6:56 PM on Saturday 25 Oct 2014 (Local Time) from MUGM Reporting Station
Broken Clouds Broken Clouds  
Wind Chill: 84°   Ceiling: 28000
Heat Index: 95°   Visibility: 6mi
Dew Point: 78°   Wind: 13mph
Humidity: 82%   Direction: 210°SSW
Pressure: 29.84"   Gusts: NA
Location:  18.2°N, 73.75°W
Report Text: MUGM 252356Z 21011KT 9999 FEW025 SCT150 BKN280 29/26 A2984 RMK SLP103 60000 T02890256 10311 20289 53009
Loading
Personal Weather Stations






























Interactive Weather Map New forecast layout! Learn more

10-Day Weather Forecast

Advertisements
Track Severe Weather on mobile